sensor_id;sensor_type;location;lat;lon;timestamp;pressure;altitude;pressure_sealevel;temperature;humidity
5879;BME280;2965;42.640;23.370;2023-12-29T04:01:11;95100.94;;;1.65;100.00
5879;BME280;2965;42.640;23.370;2023-12-29T04:03:37;95096.59;;;1.66;100.00
5879;BME280;2965;42.640;23.370;2023-12-29T04:06:03;95093.88;;;1.67;100.00
5879;BME280;2965;42.640;23.370;2023-12-29T04:08:29;95097.63;;;1.52;100.00
5879;BME280;2965;42.640;23.370;2023-12-29T04:10:54;95098.78;;;1.48;100.00
5879;BME280;2965;42.640;23.370;2023-12-29T04:13:21;95101.63;;;1.56;100.00
5879;BME280;2965;42.640;23.370;2023-12-29T04:15:46;95096.38;;;1.69;100.00
5879;BME280;2965;42.640;23.370;2023-12-29T04:18:12;95093.66;;;1.70;100.00
5879;BME280;2965;42.640;23.370;2023-12-29T04:20:37;95094.34;;;1.61;100.00
5879;BME280;2965;42.640;23.370;2023-12-29T04:23:05;95098.56;;;1.51;100.00
5879;BME280;2965;42.640;23.370;2023-12-29T04:25:30;95093.25;;;1.41;100.00
5879;BME280;2965;42.640;23.370;2023-12-29T04:27:56;95090.44;;;1.33;100.00
5879;BME280;2965;42.640;23.370;2023-12-29T04:30:21;95094.53;;;1.36;100.00
5879;BME280;2965;42.640;23.370;2023-12-29T04:32:47;95088.69;;;1.45;100.00
5879;BME280;2965;42.640;23.370;2023-12-29T04:35:12;95083.06;;;1.40;100.00
5879;BME280;2965;42.640;23.370;2023-12-29T04:37:40;95082.84;;;1.54;100.00
5879;BME280;2965;42.640;23.370;2023-12-29T04:40:06;95081.25;;;1.75;100.00
5879;BME280;2965;42.640;23.370;2023-12-29T04:42:32;95087.34;;;1.86;100.00
5879;BME280;2965;42.640;23.370;2023-12-29T04:44:57;95082.44;;;1.83;100.00
5879;BME280;2965;42.640;23.370;2023-12-29T04:47:23;95083.84;;;1.87;100.00
5879;BME280;2965;42.640;23.370;2023-12-29T04:49:48;95081.72;;;1.92;100.00
5879;BME280;2965;42.640;23.370;2023-12-29T05:23:01;95056.88;;;1.68;100.00
5879;BME280;2965;42.640;23.370;2023-12-29T05:25:26;95064.47;;;1.81;100.00
5879;BME280;2965;42.640;23.370;2023-12-29T05:27:52;95060.59;;;1.64;100.00
5879;BME280;2965;42.640;23.370;2023-12-29T05:30:17;95063.19;;;1.64;100.00
5879;BME280;2965;42.640;23.370;2023-12-29T05:32:42;95076.19;;;1.63;100.00
5879;BME280;2965;42.640;23.370;2023-12-29T05:35:08;95080.53;;;1.62;100.00
5879;BME280;2965;42.640;23.370;2023-12-29T05:37:34;95081.69;;;1.47;100.00
5879;BME280;2965;42.640;23.370;2023-12-29T05:39:59;95085.16;;;1.46;100.00
5879;BME280;2965;42.640;23.370;2023-12-29T05:42:24;95086.19;;;1.21;100.00
5879;BME280;2965;42.640;23.370;2023-12-29T05:44:50;95092.81;;;1.12;100.00
5879;BME280;2965;42.640;23.370;2023-12-29T05:47:18;95086.78;;;1.24;100.00
5879;BME280;2965;42.640;23.370;2023-12-29T05:49:44;95091.69;;;1.27;100.00
5879;BME280;2965;42.640;23.370;2023-12-29T05:52:09;95093.78;;;1.22;100.00
5879;BME280;2965;42.640;23.370;2023-12-29T05:54:35;95098.94;;;1.22;100.00
5879;BME280;2965;42.640;23.370;2023-12-29T05:57:00;95090.50;;;1.20;100.00
5879;BME280;2965;42.640;23.370;2023-12-29T05:59:26;95080.38;;;1.06;100.00
5879;BME280;2965;42.640;23.370;2023-12-29T06:01:51;95080.63;;;1.14;100.00
5879;BME280;2965;42.640;23.370;2023-12-29T06:04:17;95079.97;;;1.23;100.00
5879;BME280;2965;42.640;23.370;2023-12-29T06:06:42;95073.63;;;1.16;100.00
5879;BME280;2965;42.640;23.370;2023-12-29T06:09:11;95083.03;;;1.29;100.00
5879;BME280;2965;42.640;23.370;2023-12-29T06:11:37;95069.91;;;1.32;100.00
5879;BME280;2965;42.640;23.370;2023-12-29T06:14:03;95070.59;;;1.22;100.00
5879;BME280;2965;42.640;23.370;2023-12-29T06:16:28;95065.56;;;1.21;100.00
5879;BME280;2965;42.640;23.370;2023-12-29T06:18:55;95061.22;;;1.21;100.00
5879;BME280;2965;42.640;23.370;2023-12-29T06:21:20;95061.16;;;0.99;100.00
5879;BME280;2965;42.640;23.370;2023-12-29T06:23:46;95061.50;;;0.94;100.00
5879;BME280;2965;42.640;23.370;2023-12-29T06:26:19;95068.28;;;0.95;100.00
5879;BME280;2965;42.640;23.370;2023-12-29T06:28:45;95072.06;;;1.03;100.00
5879;BME280;2965;42.640;23.370;2023-12-29T06:31:12;95082.72;;;1.09;100.00
5879;BME280;2965;42.640;23.370;2023-12-29T06:33:42;95086.59;;;0.80;100.00
5879;BME280;2965;42.640;23.370;2023-12-29T06:36:08;95087.81;;;0.63;100.00
5879;BME280;2965;42.640;23.370;2023-12-29T06:38:34;95086.22;;;0.73;100.00
5879;BME280;2965;42.640;23.370;2023-12-29T06:41:03;95091.53;;;0.83;100.00
5879;BME280;2965;42.640;23.370;2023-12-29T06:43:32;95100.19;;;0.82;100.00
5879;BME280;2965;42.640;23.370;2023-12-29T06:45:57;95090.38;;;0.87;100.00
5879;BME280;2965;42.640;23.370;2023-12-29T06:48:23;95080.94;;;0.98;100.00
5879;BME280;2965;42.640;23.370;2023-12-29T06:50:48;95078.19;;;1.13;100.00
5879;BME280;2965;42.640;23.370;2023-12-29T06:53:14;95080.81;;;1.24;100.00
5879;BME280;2965;42.640;23.370;2023-12-29T06:55:39;95085.03;;;1.36;100.00
5879;BME280;2965;42.640;23.370;2023-12-29T06:58:05;95082.59;;;1.35;100.00
5879;BME280;2965;42.640;23.370;2023-12-29T07:00:30;95080.47;;;1.29;100.00
5879;BME280;2965;42.640;23.370;2023-12-29T07:02:56;95084.81;;;1.39;100.00
5879;BME280;2965;42.640;23.370;2023-12-29T07:05:21;95089.38;;;1.36;100.00
5879;BME280;2965;42.640;23.370;2023-12-29T07:07:47;95092.69;;;1.38;100.00
5879;BME280;2965;42.640;23.370;2023-12-29T07:10:13;95094.53;;;1.36;100.00
5879;BME280;2965;42.640;23.370;2023-12-29T07:12:40;95087.75;;;1.35;100.00
5879;BME280;2965;42.640;23.370;2023-12-29T07:15:06;95088.19;;;1.29;100.00
5879;BME280;2965;42.640;23.370;2023-12-29T07:17:32;95082.09;;;1.30;100.00
5879;BME280;2965;42.640;23.370;2023-12-29T07:19:57;95087.28;;;1.41;100.00
5879;BME280;2965;42.640;23.370;2023-12-29T07:22:23;95081.69;;;1.58;100.00
5879;BME280;2965;42.640;23.370;2023-12-29T07:24:48;95068.09;;;1.67;100.00
5879;BME280;2965;42.640;23.370;2023-12-29T07:27:14;95069.16;;;1.76;100.00
5879;BME280;2965;42.640;23.370;2023-12-29T07:29:39;95076.56;;;1.69;100.00
5879;BME280;2965;42.640;23.370;2023-12-29T07:32:05;95064.00;;;1.76;100.00
5879;BME280;2965;42.640;23.370;2023-12-29T07:34:30;95057.22;;;1.86;100.00
5879;BME280;2965;42.640;23.370;2023-12-29T07:36:57;95065.31;;;2.04;100.00
5879;BME280;2965;42.640;23.370;2023-12-29T07:39:24;95057.66;;;2.02;100.00
5879;BME280;2965;42.640;23.370;2023-12-29T07:41:49;95060.84;;;2.17;100.00
5879;BME280;2965;42.640;23.370;2023-12-29T07:44:16;95062.94;;;2.12;100.00
5879;BME280;2965;42.640;23.370;2023-12-29T07:46:42;95065.75;;;2.20;100.00
5879;BME280;2965;42.640;23.370;2023-12-29T07:49:08;95058.47;;;2.25;100.00
5879;BME280;2965;42.640;23.370;2023-12-29T07:51:33;95062.22;;;2.44;100.00
5879;BME280;2965;42.640;23.370;2023-12-29T07:53:59;95061.81;;;2.60;100.00
5879;BME280;2965;42.640;23.370;2023-12-29T07:56:25;95068.22;;;2.76;100.00
5879;BME280;2965;42.640;23.370;2023-12-29T07:58:50;95077.03;;;2.74;100.00
5879;BME280;2965;42.640;23.370;2023-12-29T08:01:16;95077.69;;;2.87;100.00
5879;BME280;2965;42.640;23.370;2023-12-29T08:03:41;95083.22;;;2.83;100.00
5879;BME280;2965;42.640;23.370;2023-12-29T08:06:07;95082.41;;;2.82;100.00
5879;BME280;2965;42.640;23.370;2023-12-29T08:08:32;95078.06;;;2.83;100.00
5879;BME280;2965;42.640;23.370;2023-12-29T08:10:57;95083.81;;;2.86;100.00
5879;BME280;2965;42.640;23.370;2023-12-29T08:13:23;95082.50;;;2.92;100.00
5879;BME280;2965;42.640;23.370;2023-12-29T08:15:48;95076.41;;;3.14;100.00
5879;BME280;2965;42.640;23.370;2023-12-29T08:18:14;95067.34;;;3.40;100.00
5879;BME280;2965;42.640;23.370;2023-12-29T08:20:40;95060.13;;;3.55;100.00
5879;BME280;2965;42.640;23.370;2023-12-29T08:23:05;95066.22;;;3.75;100.00
5879;BME280;2965;42.640;23.370;2023-12-29T08:25:31;95070.88;;;3.81;100.00
5879;BME280;2965;42.640;23.370;2023-12-29T08:27:56;95060.03;;;3.97;100.00
5879;BME280;2965;42.640;23.370;2023-12-29T08:30:22;95071.22;;;3.97;100.00
5879;BME280;2965;42.640;23.370;2023-12-29T08:32:47;95075.81;;;3.94;100.00
5879;BME280;2965;42.640;23.370;2023-12-29T08:35:12;95076.59;;;3.85;100.00
5879;BME280;2965;42.640;23.370;2023-12-29T08:37:38;95074.53;;;3.78;100.00
5879;BME280;2965;42.640;23.370;2023-12-29T08:40:04;95082.06;;;3.82;100.00
5879;BME280;2965;42.640;23.370;2023-12-29T08:42:30;95080.19;;;3.93;100.00
5879;BME280;2965;42.640;23.370;2023-12-29T08:44:55;95083.66;;;4.03;100.00
5879;BME280;2965;42.640;23.370;2023-12-29T08:47:21;95082.38;;;4.28;100.00
5879;BME280;2965;42.640;23.370;2023-12-29T08:49:46;95082.09;;;4.81;100.00
5879;BME280;2965;42.640;23.370;2023-12-29T08:52:14;95086.66;;;5.18;100.00
5879;BME280;2965;42.640;23.370;2023-12-29T08:54:39;95087.22;;;5.31;100.00
5879;BME280;2965;42.640;23.370;2023-12-29T08:57:05;95087.19;;;5.51;100.00
5879;BME280;2965;42.640;23.370;2023-12-29T08:59:32;95097.13;;;5.85;100.00
5879;BME280;2965;42.640;23.370;2023-12-29T09:01:57;95091.03;;;6.13;100.00
5879;BME280;2965;42.640;23.370;2023-12-29T09:04:23;95082.72;;;6.47;100.00
5879;BME280;2965;42.640;23.370;2023-12-29T09:06:48;95086.75;;;6.77;100.00
5879;BME280;2965;42.640;23.370;2023-12-29T09:09:14;95091.41;;;7.01;100.00
5879;BME280;2965;42.640;23.370;2023-12-29T09:11:40;95083.53;;;7.28;100.00
5879;BME280;2965;42.640;23.370;2023-12-29T09:14:06;95087.03;;;7.55;100.00
5879;BME280;2965;42.640;23.370;2023-12-29T09:16:32;95075.19;;;7.87;100.00
5879;BME280;2965;42.640;23.370;2023-12-29T09:18:57;95079.53;;;8.30;100.00
5879;BME280;2965;42.640;23.370;2023-12-29T09:21:22;95077.56;;;8.58;100.00
5879;BME280;2965;42.640;23.370;2023-12-29T09:23:48;95077.13;;;8.71;100.00
5879;BME280;2965;42.640;23.370;2023-12-29T09:26:13;95072.81;;;9.04;100.00
5879;BME280;2965;42.640;23.370;2023-12-29T09:28:42;95067.31;;;9.40;100.00
5879;BME280;2965;42.640;23.370;2023-12-29T09:31:10;95069.28;;;9.62;100.00
5879;BME280;2965;42.640;23.370;2023-12-29T09:33:35;95062.56;;;9.92;100.00
5879;BME280;2965;42.640;23.370;2023-12-29T09:36:02;95061.13;;;9.57;100.00
5879;BME280;2965;42.640;23.370;2023-12-29T09:38:28;95057.66;;;9.65;100.00
5879;BME280;2965;42.640;23.370;2023-12-29T09:40:59;95055.56;;;9.60;100.00
5879;BME280;2965;42.640;23.370;2023-12-29T09:43:25;95051.31;;;9.75;100.00
5879;BME280;2965;42.640;23.370;2023-12-29T09:45:52;95041.50;;;9.85;100.00
5879;BME280;2965;42.640;23.370;2023-12-29T09:48:19;95046.31;;;10.38;100.00
5879;BME280;2965;42.640;23.370;2023-12-29T09:50:46;95032.97;;;10.95;100.00
5879;BME280;2965;42.640;23.370;2023-12-29T09:53:12;95025.09;;;11.41;100.00
5879;BME280;2965;42.640;23.370;2023-12-29T09:55:40;95025.66;;;11.74;100.00
5879;BME280;2965;42.640;23.370;2023-12-29T09:58:07;95028.28;;;11.74;97.41
5879;BME280;2965;42.640;23.370;2023-12-29T10:00:34;95026.81;;;11.33;100.00
5879;BME280;2965;42.640;23.370;2023-12-29T10:03:00;95023.56;;;10.46;100.00
5879;BME280;2965;42.640;23.370;2023-12-29T10:05:26;95017.56;;;10.13;100.00
5879;BME280;2965;42.640;23.370;2023-12-29T10:07:52;95015.66;;;9.99;100.00
5879;BME280;2965;42.640;23.370;2023-12-29T10:10:19;95011.72;;;10.03;100.00
5879;BME280;2965;42.640;23.370;2023-12-29T10:12:47;95002.91;;;10.51;100.00
5879;BME280;2965;42.640;23.370;2023-12-29T10:21:29;95001.47;;;12.46;90.05
5879;BME280;2965;42.640;23.370;2023-12-29T10:24:05;95002.13;;;12.33;86.09
5879;BME280;2965;42.640;23.370;2023-12-29T10:26:32;94987.31;;;11.96;89.61
5879;BME280;2965;42.640;23.370;2023-12-29T10:28:58;94981.13;;;12.33;87.93
5879;BME280;2965;42.640;23.370;2023-12-29T10:31:24;94974.19;;;12.76;89.08
5879;BME280;2965;42.640;23.370;2023-12-29T10:33:51;94968.44;;;13.24;80.40
5879;BME280;2965;42.640;23.370;2023-12-29T10:36:17;94972.13;;;13.14;78.36
5879;BME280;2965;42.640;23.370;2023-12-29T10:38:42;94970.72;;;13.12;80.42
5879;BME280;2965;42.640;23.370;2023-12-29T10:43:40;94950.88;;;13.80;77.85
5879;BME280;2965;42.640;23.370;2023-12-29T10:46:09;94944.47;;;14.31;77.99
5879;BME280;2965;42.640;23.370;2023-12-29T10:48:36;94936.38;;;14.32;74.41
5879;BME280;2965;42.640;23.370;2023-12-29T10:51:03;94934.56;;;14.74;73.32
5879;BME280;2965;42.640;23.370;2023-12-29T10:53:32;94936.00;;;14.83;70.84
5879;BME280;2965;42.640;23.370;2023-12-29T10:55:58;94928.13;;;15.10;71.83
5879;BME280;2965;42.640;23.370;2023-12-29T10:58:25;94932.97;;;15.13;70.03
5879;BME280;2965;42.640;23.370;2023-12-29T11:00:54;94924.88;;;15.21;71.50
5879;BME280;2965;42.640;23.370;2023-12-29T11:03:19;94905.44;;;15.35;69.74
5879;BME280;2965;42.640;23.370;2023-12-29T11:05:45;94913.13;;;15.17;67.84
5879;BME280;2965;42.640;23.370;2023-12-29T11:08:18;94906.22;;;15.03;68.79
5879;BME280;2965;42.640;23.370;2023-12-29T11:10:44;94905.00;;;14.99;69.98
5879;BME280;2965;42.640;23.370;2023-12-29T11:13:13;94898.13;;;14.98;70.50
5879;BME280;2965;42.640;23.370;2023-12-29T11:15:45;94894.50;;;15.12;71.15
5879;BME280;2965;42.640;23.370;2023-12-29T11:18:17;94892.47;;;15.07;70.32
5879;BME280;2965;42.640;23.370;2023-12-29T11:20:44;94894.50;;;15.25;71.34
5879;BME280;2965;42.640;23.370;2023-12-29T11:23:10;94897.31;;;15.17;70.95
5879;BME280;2965;42.640;23.370;2023-12-29T11:25:39;94889.22;;;15.52;71.14
5879;BME280;2965;42.640;23.370;2023-12-29T11:28:09;94881.91;;;15.60;69.35
5879;BME280;2965;42.640;23.370;2023-12-29T11:30:36;94883.53;;;15.42;71.71
5879;BME280;2965;42.640;23.370;2023-12-29T11:35:37;94887.34;;;15.99;67.39
5879;BME280;2965;42.640;23.370;2023-12-29T11:38:17;94880.63;;;15.96;69.29
5879;BME280;2965;42.640;23.370;2023-12-29T11:41:08;94885.22;;;16.72;67.81
5879;BME280;2965;42.640;23.370;2023-12-29T11:43:34;94875.50;;;16.59;65.32
5879;BME280;2965;42.640;23.370;2023-12-29T11:46:00;94877.22;;;16.40;65.74
5879;BME280;2965;42.640;23.370;2023-12-29T11:48:57;94873.19;;;16.31;65.98
5879;BME280;2965;42.640;23.370;2023-12-29T11:51:35;94874.81;;;16.32;66.11
5879;BME280;2965;42.640;23.370;2023-12-29T11:54:04;94867.84;;;16.51;65.14
5879;BME280;2965;42.640;23.370;2023-12-29T11:56:37;94863.03;;;16.35;65.18
5879;BME280;2965;42.640;23.370;2023-12-29T11:59:23;94860.03;;;16.63;65.48
5879;BME280;2965;42.640;23.370;2023-12-29T12:01:51;94864.03;;;17.35;61.53
5879;BME280;2965;42.640;23.370;2023-12-29T12:04:43;94864.56;;;18.06;58.22
5879;BME280;2965;42.640;23.370;2023-12-29T12:12:45;94855.75;;;19.32;52.54
5879;BME280;2965;42.640;23.370;2023-12-29T12:15:38;94855.25;;;18.70;52.42
5879;BME280;2965;42.640;23.370;2023-12-29T12:18:10;94858.47;;;19.02;53.47
5879;BME280;2965;42.640;23.370;2023-12-29T12:20:36;94851.25;;;19.33;50.96
5879;BME280;2965;42.640;23.370;2023-12-29T12:23:08;94847.34;;;18.52;51.31
5879;BME280;2965;42.640;23.370;2023-12-29T12:25:38;94849.94;;;18.22;53.20
5879;BME280;2965;42.640;23.370;2023-12-29T12:28:09;94850.78;;;18.04;51.28
5879;BME280;2965;42.640;23.370;2023-12-29T12:30:35;94843.66;;;17.61;52.32
5879;BME280;2965;42.640;23.370;2023-12-29T12:33:01;94853.47;;;17.79;50.36
5879;BME280;2965;42.640;23.370;2023-12-29T12:35:28;94855.66;;;18.67;51.07
5879;BME280;2965;42.640;23.370;2023-12-29T12:38:10;94848.53;;;18.19;48.51
5879;BME280;2965;42.640;23.370;2023-12-29T12:40:35;94851.16;;;17.89;49.77
5879;BME280;2965;42.640;23.370;2023-12-29T12:43:02;94854.94;;;17.31;51.83
5879;BME280;2965;42.640;23.370;2023-12-29T12:45:29;94854.31;;;17.29;52.66
5879;BME280;2965;42.640;23.370;2023-12-29T12:48:12;94858.97;;;17.09;52.46
5879;BME280;2965;42.640;23.370;2023-12-29T12:50:45;94851.91;;;17.28;52.86
5879;BME280;2965;42.640;23.370;2023-12-29T12:53:12;94854.50;;;17.53;51.88
5879;BME280;2965;42.640;23.370;2023-12-29T12:55:47;94854.75;;;17.76;50.57
5879;BME280;2965;42.640;23.370;2023-12-29T12:58:13;94851.59;;;17.61;51.52
5879;BME280;2965;42.640;23.370;2023-12-29T13:00:40;94853.13;;;18.12;50.49
5879;BME280;2965;42.640;23.370;2023-12-29T13:03:06;94849.38;;;17.83;49.47
5879;BME280;2965;42.640;23.370;2023-12-29T13:05:32;94847.94;;;17.62;49.21
5879;BME280;2965;42.640;23.370;2023-12-29T13:07:58;94851.41;;;17.37;49.71
5879;BME280;2965;42.640;23.370;2023-12-29T13:10:23;94849.34;;;17.39;51.26
5879;BME280;2965;42.640;23.370;2023-12-29T13:12:52;94847.84;;;17.75;49.96
5879;BME280;2965;42.640;23.370;2023-12-29T13:15:19;94848.06;;;17.24;49.79
5879;BME280;2965;42.640;23.370;2023-12-29T13:17:54;94847.81;;;17.32;49.74
5879;BME280;2965;42.640;23.370;2023-12-29T13:20:20;94855.84;;;17.19;50.82
5879;BME280;2965;42.640;23.370;2023-12-29T13:22:50;94849.78;;;17.11;51.80
5879;BME280;2965;42.640;23.370;2023-12-29T13:25:20;94840.28;;;17.54;50.44
5879;BME280;2965;42.640;23.370;2023-12-29T13:27:47;94833.16;;;17.29;50.11
5879;BME280;2965;42.640;23.370;2023-12-29T13:30:13;94837.03;;;17.70;50.01
5879;BME280;2965;42.640;23.370;2023-12-29T13:32:40;94835.88;;;17.66;50.08
5879;BME280;2965;42.640;23.370;2023-12-29T13:41:07;94842.66;;;17.12;51.01
5879;BME280;2965;42.640;23.370;2023-12-29T13:43:14;94840.84;;;17.37;51.29
5879;BME280;2965;42.640;23.370;2023-12-29T13:45:42;94836.97;;;18.02;50.04
5879;BME280;2965;42.640;23.370;2023-12-29T13:48:09;94836.97;;;17.40;49.58
5879;BME280;2965;42.640;23.370;2023-12-29T13:50:35;94840.91;;;17.74;49.91
5879;BME280;2965;42.640;23.370;2023-12-29T13:53:01;94844.25;;;18.06;48.14
5879;BME280;2965;42.640;23.370;2023-12-29T13:55:26;94834.56;;;18.30;47.96
5879;BME280;2965;42.640;23.370;2023-12-29T13:57:52;94838.16;;;18.66;47.42
5879;BME280;2965;42.640;23.370;2023-12-29T14:00:23;94838.72;;;17.89;46.88
5879;BME280;2965;42.640;23.370;2023-12-29T14:02:58;94838.88;;;17.26;48.73
5879;BME280;2965;42.640;23.370;2023-12-29T14:10:30;94853.00;;;16.88;51.43
5879;BME280;2965;42.640;23.370;2023-12-29T14:13:12;94866.31;;;16.30;52.58
5879;BME280;2965;42.640;23.370;2023-12-29T14:15:40;94855.31;;;16.33;54.67
5879;BME280;2965;42.640;23.370;2023-12-29T14:20:41;94859.03;;;16.19;55.67
5879;BME280;2965;42.640;23.370;2023-12-29T14:23:07;94861.31;;;16.02;57.58
5879;BME280;2965;42.640;23.370;2023-12-29T14:25:36;94860.78;;;15.80;59.45
5879;BME280;2965;42.640;23.370;2023-12-29T14:28:17;94849.44;;;15.60;59.25
5879;BME280;2965;42.640;23.370;2023-12-29T14:30:43;94851.50;;;15.18;60.10
5879;BME280;2965;42.640;23.370;2023-12-29T14:33:09;94859.22;;;15.00;60.46
5879;BME280;2965;42.640;23.370;2023-12-29T14:35:35;94855.97;;;14.71;61.19
5879;BME280;2965;42.640;23.370;2023-12-29T14:38:01;94856.72;;;14.52;63.17
5879;BME280;2965;42.640;23.370;2023-12-29T14:40:26;94863.41;;;14.06;64.44
5879;BME280;2965;42.640;23.370;2023-12-29T14:42:52;94855.66;;;13.92;66.34
5879;BME280;2965;42.640;23.370;2023-12-29T14:45:17;94852.81;;;13.86;66.93
5879;BME280;2965;42.640;23.370;2023-12-29T14:47:43;94859.91;;;13.51;68.37
5879;BME280;2965;42.640;23.370;2023-12-29T14:50:11;94850.56;;;13.49;70.63
5879;BME280;2965;42.640;23.370;2023-12-29T14:52:36;94847.50;;;13.38;72.80
5879;BME280;2965;42.640;23.370;2023-12-29T14:55:02;94859.38;;;13.34;72.86
5879;BME280;2965;42.640;23.370;2023-12-29T14:57:28;94856.34;;;13.09;74.50
5879;BME280;2965;42.640;23.370;2023-12-29T14:59:54;94851.53;;;12.92;77.14
5879;BME280;2965;42.640;23.370;2023-12-29T15:02:19;94860.19;;;12.85;82.00
5879;BME280;2965;42.640;23.370;2023-12-29T15:04:45;94855.19;;;12.69;79.48
5879;BME280;2965;42.640;23.370;2023-12-29T15:07:10;94863.31;;;12.74;78.63
5879;BME280;2965;42.640;23.370;2023-12-29T15:09:35;94864.28;;;12.52;78.40
5879;BME280;2965;42.640;23.370;2023-12-29T15:12:01;94862.91;;;12.34;80.18
5879;BME280;2965;42.640;23.370;2023-12-29T15:14:27;94867.13;;;12.14;80.59
5879;BME280;2965;42.640;23.370;2023-12-29T15:16:53;94859.38;;;12.06;81.20
5879;BME280;2965;42.640;23.370;2023-12-29T15:19:18;94867.63;;;11.88;83.25
5879;BME280;2965;42.640;23.370;2023-12-29T15:21:44;94873.13;;;11.78;84.39
5879;BME280;2965;42.640;23.370;2023-12-29T15:24:09;94865.88;;;11.51;86.17
5879;BME280;2965;42.640;23.370;2023-12-29T15:26:35;94871.78;;;11.15;86.44
5879;BME280;2965;42.640;23.370;2023-12-29T15:29:00;94877.53;;;10.96;89.76
5879;BME280;2965;42.640;23.370;2023-12-29T15:31:26;94873.69;;;10.83;90.01
5879;BME280;2965;42.640;23.370;2023-12-29T15:33:51;94873.19;;;10.65;94.77
5879;BME280;2965;42.640;23.370;2023-12-29T15:36:20;94873.13;;;10.27;97.08
5879;BME280;2965;42.640;23.370;2023-12-29T15:38:48;94877.44;;;10.43;96.48
5879;BME280;2965;42.640;23.370;2023-12-29T15:41:13;94880.97;;;10.50;100.00
5879;BME280;2965;42.640;23.370;2023-12-29T15:43:39;94875.81;;;10.65;98.25
5879;BME280;2965;42.640;23.370;2023-12-29T15:46:13;94877.44;;;10.66;100.00
5879;BME280;2965;42.640;23.370;2023-12-29T15:48:38;94883.47;;;10.67;98.48
5879;BME280;2965;42.640;23.370;2023-12-29T15:51:06;94883.47;;;10.67;96.32
5879;BME280;2965;42.640;23.370;2023-12-29T15:53:31;94885.88;;;10.76;100.00
5879;BME280;2965;42.640;23.370;2023-12-29T15:55:57;94889.13;;;10.78;99.54
5879;BME280;2965;42.640;23.370;2023-12-29T15:58:24;94889.31;;;10.77;96.29
5879;BME280;2965;42.640;23.370;2023-12-29T16:00:49;94900.44;;;10.71;94.75
5879;BME280;2965;42.640;23.370;2023-12-29T16:03:15;94902.06;;;10.49;95.49
5879;BME280;2965;42.640;23.370;2023-12-29T16:05:41;94905.97;;;10.53;97.58
5879;BME280;2965;42.640;23.370;2023-12-29T16:08:06;94907.28;;;10.49;98.52
5879;BME280;2965;42.640;23.370;2023-12-29T16:10:31;94907.63;;;10.54;98.07
5879;BME280;2965;42.640;23.370;2023-12-29T16:12:57;94916.59;;;10.51;100.00
5879;BME280;2965;42.640;23.370;2023-12-29T16:15:22;94914.84;;;10.44;100.00
5879;BME280;2965;42.640;23.370;2023-12-29T16:17:48;94905.34;;;10.51;100.00
5879;BME280;2965;42.640;23.370;2023-12-29T16:20:13;94911.13;;;10.38;100.00
5879;BME280;2965;42.640;23.370;2023-12-29T16:22:39;94912.28;;;10.35;100.00
5879;BME280;2965;42.640;23.370;2023-12-29T16:25:05;94909.97;;;10.41;100.00
5879;BME280;2965;42.640;23.370;2023-12-29T16:27:30;94908.69;;;10.37;100.00
5879;BME280;2965;42.640;23.370;2023-12-29T16:29:56;94907.59;;;10.23;100.00
5879;BME280;2965;42.640;23.370;2023-12-29T16:32:23;94906.56;;;10.01;100.00
5879;BME280;2965;42.640;23.370;2023-12-29T16:34:51;94905.34;;;10.11;100.00
5879;BME280;2965;42.640;23.370;2023-12-29T16:37:16;94911.97;;;10.22;100.00
5879;BME280;2965;42.640;23.370;2023-12-29T16:39:42;94909.09;;;10.09;100.00
5879;BME280;2965;42.640;23.370;2023-12-29T16:42:07;94906.50;;;10.09;100.00
5879;BME280;2965;42.640;23.370;2023-12-29T16:44:33;94908.47;;;10.07;100.00
5879;BME280;2965;42.640;23.370;2023-12-29T16:46:58;94910.47;;;10.05;100.00
5879;BME280;2965;42.640;23.370;2023-12-29T16:49:23;94917.69;;;9.86;100.00
5879;BME280;2965;42.640;23.370;2023-12-29T16:51:49;94916.06;;;9.85;100.00
5879;BME280;2965;42.640;23.370;2023-12-29T16:54:14;94912.19;;;9.73;100.00
5879;BME280;2965;42.640;23.370;2023-12-29T16:56:40;94917.09;;;9.76;100.00
5879;BME280;2965;42.640;23.370;2023-12-29T16:59:05;94915.19;;;9.62;100.00
5879;BME280;2965;42.640;23.370;2023-12-29T17:01:31;94920.41;;;9.62;100.00
5879;BME280;2965;42.640;23.370;2023-12-29T17:03:57;94913.25;;;9.48;100.00
5879;BME280;2965;42.640;23.370;2023-12-29T17:06:23;94922.09;;;9.39;100.00
5879;BME280;2965;42.640;23.370;2023-12-29T17:08:49;94934.66;;;9.02;100.00
5879;BME280;2965;42.640;23.370;2023-12-29T17:11:14;94933.84;;;9.02;100.00
5879;BME280;2965;42.640;23.370;2023-12-29T17:13:40;94934.50;;;8.96;100.00
5879;BME280;2965;42.640;23.370;2023-12-29T17:16:05;94925.69;;;8.97;100.00
5879;BME280;2965;42.640;23.370;2023-12-29T17:18:31;94922.75;;;8.92;100.00
5879;BME280;2965;42.640;23.370;2023-12-29T17:20:57;94927.50;;;9.04;100.00
5879;BME280;2965;42.640;23.370;2023-12-29T17:23:22;94931.91;;;9.12;100.00
5879;BME280;2965;42.640;23.370;2023-12-29T17:25:49;94937.63;;;9.07;100.00
5879;BME280;2965;42.640;23.370;2023-12-29T17:28:15;94929.78;;;9.07;100.00
5879;BME280;2965;42.640;23.370;2023-12-29T17:30:41;94935.81;;;9.00;100.00
5879;BME280;2965;42.640;23.370;2023-12-29T17:33:06;94932.88;;;8.95;100.00
5879;BME280;2965;42.640;23.370;2023-12-29T17:35:32;94934.50;;;8.96;100.00
5879;BME280;2965;42.640;23.370;2023-12-29T17:37:57;94938.09;;;9.11;100.00
5879;BME280;2965;42.640;23.370;2023-12-29T17:40:23;94932.22;;;9.17;100.00
5879;BME280;2965;42.640;23.370;2023-12-29T17:42:48;94934.47;;;9.28;100.00
5879;BME280;2965;42.640;23.370;2023-12-29T17:45:13;94933.50;;;9.38;100.00
5879;BME280;2965;42.640;23.370;2023-12-29T17:47:39;94945.59;;;9.39;100.00
5879;BME280;2965;42.640;23.370;2023-12-29T17:50:06;94939.72;;;9.28;100.00
5879;BME280;2965;42.640;23.370;2023-12-29T17:52:31;94944.28;;;9.10;100.00
5879;BME280;2965;42.640;23.370;2023-12-29T17:54:57;94942.00;;;9.23;100.00
5879;BME280;2965;42.640;23.370;2023-12-29T17:57:22;94949.34;;;9.12;100.00
5879;BME280;2965;42.640;23.370;2023-12-29T18:33:25;94947.22;;;8.82;100.00
5879;BME280;2965;42.640;23.370;2023-12-29T18:35:50;94940.69;;;8.70;100.00
5879;BME280;2965;42.640;23.370;2023-12-29T18:38:15;94945.09;;;8.70;100.00
5879;BME280;2965;42.640;23.370;2023-12-29T18:40:41;94946.84;;;8.53;100.00
5879;BME280;2965;42.640;23.370;2023-12-29T18:43:06;94951.66;;;8.31;100.00